createdAt,value
2018-05-29T00:00:26.281Z,24.86
2018-05-29T00:01:26.310Z,24.85
2018-05-29T00:02:26.336Z,24.85
2018-05-29T00:03:26.364Z,24.77
2018-05-29T00:04:26.392Z,24.86
2018-05-29T00:05:26.443Z,24.78
2018-05-29T00:06:26.446Z,24.81
2018-05-29T00:07:26.488Z,24.82
2018-05-29T00:08:26.530Z,24.82
2018-05-29T00:09:26.531Z,24.81
2018-05-29T00:10:26.558Z,24.79
2018-05-29T00:11:26.586Z,24.77
2018-05-29T00:12:26.614Z,24.79
2018-05-29T00:13:26.642Z,24.79
2018-05-29T00:14:26.668Z,24.75
2018-05-29T00:15:26.697Z,24.81
2018-05-29T00:16:26.726Z,24.69
2018-05-29T00:17:26.752Z,24.71
2018-05-29T00:18:26.779Z,24.71
2018-05-29T00:19:26.809Z,24.79
2018-05-29T00:20:26.835Z,24.74
2018-05-29T00:21:26.889Z,24.75
2018-05-29T00:22:26.890Z,24.71
2018-05-29T00:23:26.918Z,24.74
2018-05-29T00:24:26.948Z,24.77
2018-05-29T00:25:26.974Z,24.66
2018-05-29T00:26:27.010Z,24.68
2018-05-29T00:27:27.028Z,24.63
2018-05-29T00:28:27.057Z,24.65
2018-05-29T00:29:27.084Z,24.65
2018-05-29T00:30:27.136Z,24.66
2018-05-29T00:31:27.173Z,24.56
2018-05-29T00:32:27.168Z,24.65
2018-05-29T00:33:27.196Z,24.69
2018-05-29T00:34:27.252Z,24.66
2018-05-29T00:35:27.250Z,24.61
2018-05-29T00:36:27.280Z,24.77
2018-05-29T00:37:27.310Z,24.58
2018-05-29T00:38:27.334Z,24.74
2018-05-29T00:39:27.382Z,24.77
2018-05-29T00:40:27.389Z,24.77
2018-05-29T00:41:27.417Z,24.66
2018-05-29T00:42:27.444Z,24.71
2018-05-29T00:43:27.485Z,24.77
2018-05-29T00:44:27.503Z,24.69
2018-05-29T00:45:27.550Z,24.66
2018-05-29T00:46:27.555Z,24.79
2018-05-29T00:47:27.587Z,24.77
2018-05-29T00:48:27.611Z,24.75
2018-05-29T00:49:27.638Z,24.74
2018-05-29T00:50:27.666Z,24.74
2018-05-29T00:51:27.694Z,24.77
2018-05-29T00:52:27.721Z,24.81
2018-05-29T00:53:27.749Z,24.78
2018-05-29T00:54:27.776Z,24.82
2018-05-29T00:55:27.804Z,24.78
2018-05-29T00:56:27.832Z,24.82
2018-05-29T00:57:27.860Z,24.75
2018-05-29T00:58:27.889Z,24.77
2018-05-29T00:59:27.915Z,24.79
2018-05-29T01:00:27.943Z,24.81
2018-05-29T01:01:27.971Z,24.77
2018-05-29T01:02:28.001Z,24.84
2018-05-29T01:03:28.026Z,24.85
2018-05-29T01:04:28.053Z,24.86
2018-05-29T01:05:28.081Z,24.79
2018-05-29T01:06:28.109Z,24.85
2018-05-29T01:07:28.137Z,24.81
2018-05-29T01:08:28.164Z,24.81
2018-05-29T01:09:28.192Z,24.74
2018-05-29T01:10:28.221Z,24.82
2018-05-29T01:11:28.250Z,24.78
2018-05-29T01:12:28.275Z,24.77
2018-05-29T01:13:28.304Z,24.79
2018-05-29T01:14:28.330Z,24.74
2018-05-29T01:15:28.362Z,24.78
2018-05-29T01:16:28.386Z,24.81
2018-05-29T01:17:28.414Z,24.71
2018-05-29T01:18:28.441Z,24.79
2018-05-29T01:19:28.469Z,24.79
2018-05-29T01:20:28.497Z,24.74
2018-05-29T01:21:28.524Z,24.65
2018-05-29T01:22:28.552Z,24.71
2018-05-29T01:23:28.579Z,24.63
2018-05-29T01:24:28.607Z,24.63
2018-05-29T01:25:28.636Z,24.63
2018-05-29T01:26:28.662Z,24.69
2018-05-29T01:27:28.691Z,24.78
2018-05-29T01:28:28.748Z,24.74
2018-05-29T01:29:28.746Z,24.74
2018-05-29T01:30:28.775Z,24.79
2018-05-29T01:31:28.800Z,24.74
2018-05-29T01:32:28.830Z,24.79
2018-05-29T01:33:28.857Z,24.74
2018-05-29T01:34:28.937Z,24.78
2018-05-29T01:35:28.911Z,24.71
2018-05-29T01:36:28.940Z,24.78
2018-05-29T01:37:28.968Z,24.78
2018-05-29T01:38:28.995Z,24.74
2018-05-29T01:39:29.023Z,24.77
2018-05-29T01:40:29.051Z,24.78
2018-05-29T01:41:29.078Z,24.78
2018-05-29T01:42:29.105Z,24.81
2018-05-29T01:43:29.133Z,24.78
2018-05-29T01:44:29.198Z,24.77
2018-05-29T01:45:29.193Z,24.81
2018-05-29T01:46:29.216Z,24.85
2018-05-29T01:47:29.247Z,24.93
2018-05-29T01:48:29.271Z,24.93
2018-05-29T01:49:29.329Z,24.88
2018-05-29T01:50:29.326Z,24.92
2018-05-29T01:51:29.354Z,24.93
2018-05-29T01:52:29.382Z,25.01
2018-05-29T01:53:29.414Z,25.04
2018-05-29T01:54:29.436Z,24.92
2018-05-29T01:55:29.469Z,25.00
2018-05-29T01:56:29.493Z,25.04
2018-05-29T01:57:29.521Z,25.01
2018-05-29T01:58:29.547Z,24.97
2018-05-29T01:59:29.576Z,24.94
2018-05-29T02:00:29.603Z,25.01
2018-05-29T02:01:29.633Z,24.99
2018-05-29T02:02:29.658Z,25.01
2018-05-29T02:03:29.686Z,25.01
2018-05-29T02:04:29.796Z,24.97
2018-05-29T02:05:29.743Z,24.97
2018-05-29T02:06:29.769Z,25.01
2018-05-29T02:07:29.796Z,25.01
2018-05-29T02:08:29.824Z,24.94
2018-05-29T02:09:29.853Z,24.99
2018-05-29T02:10:29.881Z,24.94
2018-05-29T02:11:29.908Z,24.96
2018-05-29T02:12:29.935Z,25.00
2018-05-29T02:13:30.003Z,25.01
2018-05-29T02:14:29.990Z,24.96
2018-05-29T02:15:30.018Z,25.06
2018-05-29T02:16:30.045Z,25.04
2018-05-29T02:17:30.075Z,25.01
2018-05-29T02:18:30.100Z,25.01
2018-05-29T02:19:30.128Z,24.96
2018-05-29T02:20:30.175Z,25.01
2018-05-29T02:21:30.186Z,25.03
2018-05-29T02:22:30.211Z,25.07
2018-05-29T02:23:30.239Z,25.07
2018-05-29T02:24:30.267Z,25.01
2018-05-29T02:25:30.296Z,25.07
2018-05-29T02:26:30.321Z,25.07
2018-05-29T02:27:30.350Z,25.12
2018-05-29T02:28:30.378Z,25.11
2018-05-29T02:29:30.405Z,25.07
2018-05-29T02:30:30.435Z,25.16
2018-05-29T02:31:30.460Z,25.12
2018-05-29T02:32:30.489Z,25.15
2018-05-29T02:33:30.516Z,25.15
2018-05-29T02:34:30.544Z,25.22
2018-05-29T02:35:30.572Z,25.24
2018-05-29T02:36:30.599Z,25.24
2018-05-29T02:37:30.629Z,25.15
2018-05-29T02:38:30.655Z,25.22
2018-05-29T02:39:30.682Z,25.33
2018-05-29T02:40:30.711Z,25.22
2018-05-29T02:41:30.751Z,25.24
2018-05-29T02:42:30.765Z,25.33
2018-05-29T02:43:30.828Z,25.22
2018-05-29T02:44:30.822Z,25.31
2018-05-29T02:45:30.879Z,25.39
2018-05-29T02:46:30.884Z,25.30
2018-05-29T02:47:30.904Z,25.44
2018-05-29T02:48:30.935Z,25.43
2018-05-29T02:49:30.960Z,25.43
2018-05-29T02:50:30.987Z,25.43
2018-05-29T02:51:31.015Z,25.40
2018-05-29T02:52:31.043Z,25.43
2018-05-29T02:53:31.071Z,25.52
2018-05-29T02:54:31.098Z,25.51
2018-05-29T02:55:31.127Z,25.52
2018-05-29T02:56:31.154Z,25.61
2018-05-29T02:57:31.183Z,25.54
2018-05-29T02:58:31.209Z,25.61
2018-05-29T02:59:31.238Z,25.61
2018-05-29T03:00:31.269Z,25.59
2018-05-29T03:01:31.293Z,25.63
2018-05-29T03:02:31.320Z,25.63
2018-05-29T03:03:31.348Z,25.62
2018-05-29T03:04:31.376Z,25.67
2018-05-29T03:05:31.404Z,25.62
2018-05-29T03:06:31.432Z,25.68
2018-05-29T03:07:31.460Z,25.56
2018-05-29T03:08:31.492Z,25.67
2018-05-29T03:09:31.516Z,25.63
2018-05-29T03:10:31.544Z,25.62
2018-05-29T03:11:31.572Z,25.62
2018-05-29T03:12:31.600Z,25.61
2018-05-29T03:13:31.628Z,25.62
2018-05-29T03:14:31.655Z,25.59
2018-05-29T03:15:31.682Z,25.70
2018-05-29T03:16:31.730Z,25.74
2018-05-29T03:17:31.739Z,25.66
2018-05-29T03:18:31.784Z,25.74
2018-05-29T03:19:31.818Z,25.76
2018-05-29T03:20:31.824Z,25.76
2018-05-29T03:21:31.851Z,25.74
2018-05-29T03:22:31.877Z,25.70
2018-05-29T03:23:31.906Z,25.70
2018-05-29T03:24:31.934Z,25.67
2018-05-29T03:25:31.962Z,25.63
2018-05-29T03:26:32.026Z,25.71
2018-05-29T03:27:32.017Z,25.67
2018-05-29T03:28:32.046Z,25.67
2018-05-29T03:29:32.074Z,25.67
2018-05-29T03:30:32.100Z,25.66
2018-05-29T03:31:32.189Z,25.63
2018-05-29T03:32:32.157Z,25.67
2018-05-29T03:33:32.185Z,25.62
2018-05-29T03:34:32.236Z,25.62
2018-05-29T03:35:32.241Z,25.62
2018-05-29T03:36:32.269Z,25.62
2018-05-29T03:37:32.297Z,25.73
2018-05-29T03:38:32.326Z,25.71
2018-05-29T03:39:32.352Z,25.66
2018-05-29T03:40:32.382Z,25.62
2018-05-29T03:41:32.409Z,25.62
2018-05-29T03:42:32.435Z,25.59
2018-05-29T03:43:32.464Z,25.67
2018-05-29T03:44:32.499Z,25.63
2018-05-29T03:45:32.520Z,25.62
2018-05-29T03:46:32.547Z,25.62
2018-05-29T03:47:32.576Z,25.66
2018-05-29T03:48:32.604Z,25.73
2018-05-29T03:49:32.632Z,25.74
2018-05-29T03:50:32.659Z,25.70
2018-05-29T03:51:32.688Z,25.78
2018-05-29T03:52:32.717Z,25.74
2018-05-29T03:53:32.743Z,25.77
2018-05-29T03:54:32.770Z,25.74
2018-05-29T03:55:32.798Z,25.76
2018-05-29T03:56:32.858Z,25.77
2018-05-29T03:57:32.855Z,25.77
2018-05-29T03:58:32.882Z,25.77
2018-05-29T03:59:32.911Z,25.80
2018-05-29T04:00:32.940Z,25.83
2018-05-29T04:01:32.967Z,25.86
2018-05-29T04:02:32.997Z,25.77
2018-05-29T04:03:33.022Z,25.88
2018-05-29T04:04:33.053Z,25.91
2018-05-29T04:05:33.079Z,25.96
2018-05-29T04:06:33.106Z,25.86
2018-05-29T04:07:33.133Z,25.86
2018-05-29T04:08:33.220Z,25.86
2018-05-29T04:09:33.190Z,25.88
2018-05-29T04:10:33.218Z,25.92
2018-05-29T04:11:33.246Z,25.88
2018-05-29T04:12:33.274Z,25.89
2018-05-29T04:13:33.302Z,25.92
2018-05-29T04:14:33.330Z,25.93
2018-05-29T04:15:33.374Z,25.99
2018-05-29T04:16:33.386Z,25.92
2018-05-29T04:17:33.449Z,26.04
2018-05-29T04:18:33.441Z,25.98
2018-05-29T04:19:33.483Z,26.01
2018-05-29T04:20:33.498Z,26.01
2018-05-29T04:21:33.527Z,25.99
2018-05-29T04:22:33.554Z,26.04
2018-05-29T04:23:33.582Z,26.03
2018-05-29T04:24:33.638Z,26.06
2018-05-29T04:25:33.638Z,25.98
2018-05-29T04:26:33.710Z,25.91
2018-05-29T04:27:33.694Z,25.89
2018-05-29T04:28:33.722Z,25.98
2018-05-29T04:29:33.750Z,25.91
2018-05-29T04:30:33.778Z,25.88
2018-05-29T04:31:33.806Z,25.95
2018-05-29T04:32:33.837Z,25.89
2018-05-29T04:33:33.863Z,26.03
2018-05-29T04:34:33.890Z,25.92
2018-05-29T04:35:33.930Z,25.88
2018-05-29T04:36:33.946Z,26.01
2018-05-29T04:37:33.974Z,25.92
2018-05-29T04:38:34.001Z,26.07
2018-05-29T04:39:34.033Z,25.93
2018-05-29T04:40:34.073Z,25.91
2018-05-29T04:41:40.678Z,26.03
2018-05-29T04:42:34.113Z,25.86
2018-05-29T04:44:09.681Z,25.96
2018-05-29T04:44:34.170Z,25.92
2018-05-29T04:45:34.201Z,25.89
2018-05-29T04:46:34.225Z,25.89
2018-05-29T04:47:35.187Z,25.96
2018-05-29T04:50:44.030Z,26.03
2018-05-29T04:52:21.815Z,25.95
2018-05-29T04:54:27.877Z,25.95
2018-05-29T04:55:27.850Z,25.91
2018-05-29T04:57:35.315Z,25.86
2018-05-29T04:59:36.230Z,25.85
2018-05-29T05:01:47.429Z,25.92
2018-05-29T05:05:33.458Z,26.04
2018-05-29T05:06:33.457Z,26.07
2018-05-29T05:07:33.487Z,26.15
2018-05-29T05:08:33.518Z,26.11
2018-05-29T05:09:33.546Z,26.06
2018-05-29T05:10:33.570Z,26.08
2018-05-29T05:11:33.598Z,26.18
2018-05-29T05:12:33.644Z,26.16
2018-05-29T05:13:33.655Z,26.18
2018-05-29T05:14:33.682Z,26.23
2018-05-29T05:15:33.710Z,26.13
2018-05-29T05:16:33.739Z,26.22
2018-05-29T05:17:33.770Z,26.24
2018-05-29T05:18:33.794Z,26.23
2018-05-29T05:19:33.822Z,26.23
2018-05-29T05:20:33.851Z,26.18
2018-05-29T05:21:33.879Z,26.24
2018-05-29T05:22:33.916Z,26.19
2018-05-29T05:23:33.981Z,26.22
2018-05-29T05:24:33.965Z,26.23
2018-05-29T05:25:33.993Z,26.22
2018-05-29T05:26:34.019Z,26.19
2018-05-29T05:27:34.048Z,26.23
2018-05-29T05:28:34.076Z,26.23
2018-05-29T05:29:34.133Z,26.24
2018-05-29T05:30:34.132Z,26.30
2018-05-29T05:31:34.161Z,26.26
2018-05-29T05:32:34.189Z,26.22
2018-05-29T05:33:34.216Z,26.23
2018-05-29T05:34:34.245Z,26.23
2018-05-29T05:35:34.272Z,26.26
2018-05-29T05:36:34.301Z,26.27
2018-05-29T05:37:34.330Z,26.19
2018-05-29T05:38:34.362Z,26.22
2018-05-29T05:39:34.384Z,26.29
2018-05-29T05:40:34.426Z,26.31
2018-05-29T05:41:35.187Z,26.31
2018-05-29T05:42:34.473Z,26.23
2018-05-29T05:43:34.500Z,26.18
2018-05-29T05:44:34.531Z,26.22
2018-05-29T05:45:34.554Z,26.18
2018-05-29T05:46:34.589Z,26.23
2018-05-29T05:47:34.614Z,26.30
2018-05-29T05:48:41.192Z,26.29
2018-05-29T05:49:41.192Z,26.26
2018-05-29T05:51:10.700Z,26.31
2018-05-29T05:51:34.724Z,26.36
2018-05-29T05:52:35.696Z,26.42
2018-05-29T05:53:37.694Z,26.42
2018-05-29T05:54:41.694Z,26.44
2018-05-29T05:55:41.695Z,26.44
2018-05-29T05:57:02.696Z,26.48
2018-05-29T05:58:10.698Z,26.45
2018-05-29T05:58:49.699Z,26.48
2018-05-29T05:59:35.697Z,26.51
2018-05-29T06:00:34.976Z,26.51
2018-05-29T06:01:35.698Z,26.51
2018-05-29T06:02:35.033Z,26.53
2018-05-29T06:03:37.699Z,26.53
2018-05-29T06:05:02.700Z,26.49
2018-05-29T06:05:35.117Z,26.51
2018-05-29T06:06:41.701Z,26.60
2018-05-29T06:07:35.728Z,26.55
2018-05-29T06:08:35.705Z,26.63
2018-05-29T06:09:50.202Z,26.52
2018-05-29T06:10:38.204Z,26.56
2018-05-29T06:11:35.287Z,26.53
2018-05-29T06:12:35.315Z,26.52
2018-05-29T06:13:35.366Z,26.49
2018-05-29T06:14:35.371Z,26.55
2018-05-29T06:15:35.399Z,26.59
2018-05-29T06:16:35.430Z,26.41
2018-05-29T06:17:35.455Z,26.49
2018-05-29T06:18:35.484Z,26.55
2018-05-29T06:19:35.512Z,26.45
2018-05-29T06:20:35.541Z,26.53
2018-05-29T06:21:35.569Z,26.52
2018-05-29T06:22:35.598Z,26.51
2018-05-29T06:23:35.625Z,26.48
2018-05-29T06:24:35.654Z,26.52
2018-05-29T06:25:35.681Z,26.48
2018-05-29T06:26:35.710Z,26.53
2018-05-29T06:27:35.739Z,26.49
2018-05-29T06:28:35.767Z,26.53
2018-05-29T06:29:35.811Z,26.49
2018-05-29T06:30:35.823Z,26.51
2018-05-29T06:31:35.852Z,26.51
2018-05-29T06:32:35.880Z,26.51
2018-05-29T06:33:35.907Z,26.51
2018-05-29T06:34:35.936Z,26.48
2018-05-29T06:35:35.964Z,26.42
2018-05-29T06:36:35.993Z,26.52
2018-05-29T06:37:36.020Z,26.52
2018-05-29T06:38:36.089Z,26.41
2018-05-29T06:39:36.085Z,26.51
2018-05-29T06:40:36.106Z,26.48
2018-05-29T06:41:36.133Z,26.44
2018-05-29T06:42:36.163Z,26.45
2018-05-29T06:43:36.190Z,26.48
2018-05-29T06:44:50.789Z,26.44
2018-05-29T06:45:36.246Z,26.45
2018-05-29T06:46:36.276Z,26.44
2018-05-29T06:47:36.304Z,26.48
2018-05-29T06:48:36.332Z,26.45
2018-05-29T06:49:36.360Z,26.45
2018-05-29T06:50:36.430Z,26.48
2018-05-29T06:51:36.418Z,26.42
2018-05-29T06:52:36.478Z,26.41
2018-05-29T06:53:36.473Z,26.41
2018-05-29T06:54:36.501Z,26.36
2018-05-29T06:55:36.530Z,26.39
2018-05-29T06:56:36.561Z,26.48
2018-05-29T06:57:36.586Z,26.51
2018-05-29T06:58:36.653Z,26.48
2018-05-29T06:59:36.643Z,26.44
2018-05-29T07:00:36.673Z,26.45
2018-05-29T07:01:36.704Z,26.48
2018-05-29T07:02:36.728Z,26.41
2018-05-29T07:03:36.756Z,26.52
2018-05-29T07:04:36.784Z,26.46
2018-05-29T07:05:36.814Z,26.51
2018-05-29T07:06:36.841Z,26.48
2018-05-29T07:07:36.870Z,26.51
2018-05-29T07:08:36.908Z,26.46
2018-05-29T07:09:36.979Z,26.51
2018-05-29T07:10:36.960Z,26.36
2018-05-29T07:11:37.027Z,26.49
2018-05-29T07:12:37.010Z,26.48
2018-05-29T07:13:37.039Z,26.41
2018-05-29T07:14:37.138Z,26.48
2018-05-29T07:15:37.111Z,26.46
2018-05-29T07:16:37.125Z,26.51
2018-05-29T07:17:37.151Z,26.45
2018-05-29T07:18:37.180Z,26.45
2018-05-29T07:19:37.211Z,26.48
2018-05-29T07:20:37.239Z,26.48
2018-05-29T07:21:37.283Z,26.41
2018-05-29T07:22:37.304Z,26.48
2018-05-29T07:23:37.322Z,26.49
2018-05-29T07:24:37.388Z,26.45
2018-05-29T07:25:37.377Z,26.49
2018-05-29T07:26:37.415Z,26.48
2018-05-29T07:27:37.435Z,26.51
2018-05-29T07:28:37.496Z,26.46
2018-05-29T07:29:37.493Z,26.51
2018-05-29T07:30:37.534Z,26.49
2018-05-29T07:31:37.549Z,26.48
2018-05-29T07:32:37.581Z,26.39
2018-05-29T07:33:37.604Z,26.48
2018-05-29T07:34:37.632Z,26.51
2018-05-29T07:35:37.673Z,26.48
2018-05-29T07:36:37.716Z,26.46
2018-05-29T07:37:37.718Z,26.48
2018-05-29T07:38:37.753Z,26.52
2018-05-29T07:39:37.778Z,26.56
2018-05-29T07:40:37.812Z,26.45
2018-05-29T07:41:37.829Z,26.48
2018-05-29T07:42:37.858Z,26.49
2018-05-29T07:43:37.886Z,26.46
2018-05-29T07:44:37.916Z,26.45
2018-05-29T07:45:37.942Z,26.56
2018-05-29T07:46:37.982Z,26.53
2018-05-29T07:47:38.000Z,26.55
2018-05-29T07:48:38.029Z,26.56
2018-05-29T07:49:38.055Z,26.64
2018-05-29T07:50:38.092Z,26.60
2018-05-29T07:51:38.113Z,26.53
2018-05-29T07:52:38.142Z,26.66
2018-05-29T07:53:38.169Z,26.59
2018-05-29T07:54:38.200Z,26.64
2018-05-29T07:55:38.227Z,26.63
2018-05-29T07:56:38.255Z,26.61
2018-05-29T07:57:38.325Z,26.64
2018-05-29T07:58:38.310Z,26.64
2018-05-29T07:59:38.371Z,26.70
2018-05-29T08:00:38.369Z,26.71
2018-05-29T08:01:38.406Z,26.71
2018-05-29T08:02:38.455Z,26.67
2018-05-29T08:03:38.456Z,26.64
2018-05-29T08:04:38.488Z,26.67
2018-05-29T08:05:38.509Z,26.68
2018-05-29T08:06:38.539Z,26.73
2018-05-29T08:07:38.569Z,26.74
2018-05-29T08:08:38.608Z,26.70
2018-05-29T08:09:38.624Z,26.82
2018-05-29T08:10:38.719Z,26.74
2018-05-29T08:11:38.680Z,26.74
2018-05-29T08:12:38.708Z,26.82
2018-05-29T08:13:38.737Z,26.68
2018-05-29T08:14:38.763Z,26.70
2018-05-29T08:15:38.793Z,26.81
2018-05-29T08:16:38.822Z,26.76
2018-05-29T08:17:38.848Z,26.74
2018-05-29T08:18:38.918Z,26.79
2018-05-29T08:19:38.906Z,26.82
2018-05-29T08:20:38.946Z,26.86
2018-05-29T08:21:38.962Z,26.81
2018-05-29T08:22:38.992Z,26.81
2018-05-29T08:23:39.023Z,26.83
2018-05-29T08:24:39.091Z,26.79
2018-05-29T08:25:39.075Z,26.83
2018-05-29T08:26:39.108Z,26.82
2018-05-29T08:27:39.136Z,26.76
2018-05-29T08:28:39.162Z,26.89
2018-05-29T08:29:39.196Z,26.82
2018-05-29T08:30:39.229Z,26.82
2018-05-29T08:31:39.253Z,26.78
2018-05-29T08:32:39.279Z,26.83
2018-05-29T08:33:39.315Z,26.82
2018-05-29T08:34:39.335Z,26.82
2018-05-29T08:35:39.364Z,26.88
2018-05-29T08:36:39.388Z,26.81
2018-05-29T08:37:39.418Z,26.81
2018-05-29T08:38:39.447Z,26.81
2018-05-29T08:39:39.489Z,26.82
2018-05-29T08:40:39.503Z,26.83
2018-05-29T08:41:39.530Z,26.82
2018-05-29T08:42:39.558Z,26.82
2018-05-29T08:43:39.592Z,26.82
2018-05-29T08:44:39.625Z,26.83
2018-05-29T08:45:39.642Z,26.79
2018-05-29T08:46:39.682Z,26.81
2018-05-29T08:47:39.700Z,26.83
2018-05-29T08:48:39.729Z,26.79
2018-05-29T08:49:39.756Z,26.79
2018-05-29T08:50:39.794Z,26.79
2018-05-29T08:51:39.814Z,26.78
2018-05-29T08:52:39.850Z,26.79
2018-05-29T08:53:39.869Z,26.88
2018-05-29T08:54:39.905Z,26.83
2018-05-29T08:55:39.927Z,26.83
2018-05-29T08:56:39.956Z,26.82
2018-05-29T08:57:39.993Z,26.85
2018-05-29T08:58:40.013Z,26.82
2018-05-29T08:59:40.042Z,26.86
2018-05-29T09:00:40.070Z,26.85
2018-05-29T09:01:40.101Z,26.83
2018-05-29T09:02:40.126Z,26.86
2018-05-29T09:03:40.156Z,26.82
2018-05-29T09:04:40.213Z,26.82
2018-05-29T09:05:40.211Z,26.93
2018-05-29T09:06:40.240Z,26.89
2018-05-29T09:07:40.277Z,26.92
2018-05-29T09:08:40.313Z,26.97
2018-05-29T09:09:40.324Z,26.92
2018-05-29T09:10:40.356Z,26.96
2018-05-29T09:11:40.386Z,27.00
2018-05-29T09:12:40.413Z,26.96
2018-05-29T09:13:40.439Z,26.97
2018-05-29T09:14:40.468Z,26.89
2018-05-29T09:15:40.497Z,27.10
2018-05-29T09:16:40.524Z,27.03
2018-05-29T09:17:40.556Z,27.08
2018-05-29T09:18:40.581Z,27.08
2018-05-29T09:19:40.610Z,27.10
2018-05-29T09:20:40.640Z,27.11
2018-05-29T09:21:40.666Z,27.13
2018-05-29T09:22:40.694Z,27.20
2018-05-29T09:23:40.723Z,27.20
2018-05-29T09:24:40.778Z,27.10
2018-05-29T09:25:40.779Z,27.23
2018-05-29T09:26:40.808Z,27.11
2018-05-29T09:27:40.840Z,27.20
2018-05-29T09:28:40.864Z,27.16
2018-05-29T09:29:40.964Z,27.08
2018-05-29T09:30:40.921Z,27.10
2018-05-29T09:31:40.951Z,27.07
2018-05-29T09:32:40.979Z,27.13
2018-05-29T09:33:41.009Z,27.11
2018-05-29T09:34:41.036Z,27.07
2018-05-29T09:35:41.064Z,27.04
2018-05-29T09:36:41.093Z,27.07
2018-05-29T09:37:41.125Z,27.16
2018-05-29T09:38:41.153Z,26.98
2018-05-29T09:39:41.178Z,27.01
2018-05-29T09:40:41.227Z,27.08
2018-05-29T09:41:41.233Z,27.07
2018-05-29T09:42:41.263Z,27.03
2018-05-29T09:43:41.295Z,26.96
2018-05-29T09:44:41.413Z,27.04
2018-05-29T09:45:41.389Z,27.05
2018-05-29T09:46:41.379Z,26.97
2018-05-29T09:47:41.408Z,26.97
2018-05-29T09:48:41.435Z,26.93
2018-05-29T09:49:41.462Z,26.91
2018-05-29T09:50:41.516Z,26.98
2018-05-29T09:51:41.522Z,27.08
2018-05-29T09:52:41.550Z,27.04
2018-05-29T09:53:41.577Z,27.13
2018-05-29T09:54:41.605Z,26.98
2018-05-29T09:55:41.634Z,27.04
2018-05-29T09:56:41.666Z,26.98
2018-05-29T09:57:41.690Z,27.10
2018-05-29T09:58:41.721Z,27.03
2018-05-29T09:59:41.747Z,26.97
2018-05-29T10:00:41.807Z,27.03
2018-05-29T10:01:41.805Z,27.07
2018-05-29T10:02:41.833Z,27.04
2018-05-29T10:03:41.862Z,27.01
2018-05-29T10:04:41.891Z,27.04
2018-05-29T10:05:41.918Z,26.97
2018-05-29T10:06:41.981Z,27.10
2018-05-29T10:07:41.975Z,27.07
2018-05-29T10:08:42.004Z,27.05
2018-05-29T10:09:42.031Z,27.04
2018-05-29T10:10:42.060Z,27.05
2018-05-29T10:11:42.088Z,27.00
2018-05-29T10:12:42.142Z,27.00
2018-05-29T10:13:42.146Z,27.08
2018-05-29T10:14:42.176Z,27.08
2018-05-29T10:15:42.203Z,27.11
2018-05-29T10:16:42.232Z,27.13
2018-05-29T10:17:42.261Z,27.13
2018-05-29T10:18:42.290Z,27.08
2018-05-29T10:19:42.318Z,27.11
2018-05-29T10:20:42.346Z,27.11
2018-05-29T10:21:42.375Z,27.11
2018-05-29T10:22:42.404Z,27.15
2018-05-29T10:23:42.439Z,27.15
2018-05-29T10:24:42.486Z,27.10
2018-05-29T10:25:42.496Z,27.16
2018-05-29T10:26:42.570Z,27.19
2018-05-29T10:27:42.554Z,27.13
2018-05-29T10:28:42.573Z,27.15
2018-05-29T10:29:42.600Z,27.16
2018-05-29T10:30:42.632Z,27.13
2018-05-29T10:31:42.664Z,27.10
2018-05-29T10:32:42.689Z,27.08
2018-05-29T10:33:42.719Z,27.16
2018-05-29T10:34:42.746Z,27.11
2018-05-29T10:35:42.774Z,27.10
2018-05-29T10:36:42.801Z,27.13
2018-05-29T10:37:42.830Z,27.10
2018-05-29T10:38:42.859Z,27.10
2018-05-29T10:39:42.890Z,27.13
2018-05-29T10:40:42.924Z,27.08
2018-05-29T10:41:42.944Z,27.10
2018-05-29T10:42:42.972Z,27.10
2018-05-29T10:43:43.036Z,27.15
2018-05-29T10:44:43.031Z,27.05
2018-05-29T10:45:43.056Z,27.15
2018-05-29T10:46:43.088Z,27.20
2018-05-29T10:47:43.115Z,27.07
2018-05-29T10:48:43.144Z,27.11
2018-05-29T10:49:43.171Z,27.16
2018-05-29T10:50:43.200Z,27.18
2018-05-29T10:51:43.236Z,27.11
2018-05-29T10:52:43.257Z,27.07
2018-05-29T10:53:43.285Z,27.11
2018-05-29T10:54:43.315Z,27.11
2018-05-29T10:55:43.343Z,27.19
2018-05-29T10:56:43.371Z,27.13
2018-05-29T10:57:43.398Z,27.25
2018-05-29T10:58:43.428Z,27.15
2018-05-29T10:59:43.488Z,27.13
2018-05-29T11:00:43.517Z,27.15
2018-05-29T11:01:43.513Z,27.15
2018-05-29T11:02:43.542Z,27.08
2018-05-29T11:03:43.571Z,27.13
2018-05-29T11:04:43.604Z,27.10
2018-05-29T11:05:43.628Z,27.11
2018-05-29T11:06:43.656Z,27.13
2018-05-29T11:07:43.723Z,27.16
2018-05-29T11:08:43.722Z,27.18
2018-05-29T11:09:43.741Z,27.11
2018-05-29T11:10:43.772Z,27.11
2018-05-29T11:11:43.799Z,27.19
2018-05-29T11:12:43.829Z,27.19
2018-05-29T11:18:38.513Z,27.19
2018-05-29T11:19:38.493Z,27.22
2018-05-29T11:21:33.119Z,27.18
2018-05-29T11:22:33.098Z,27.10
2018-05-29T11:24:26.050Z,27.05
2018-05-29T11:25:26.022Z,27.11
2018-05-29T11:27:18.919Z,27.20
2018-05-29T11:28:18.940Z,27.18
2018-05-29T11:30:39.087Z,27.19
2018-05-29T11:31:39.088Z,27.07
2018-05-29T11:33:33.705Z,27.25
2018-05-29T11:34:33.707Z,27.22
2018-05-29T11:36:53.861Z,27.23
2018-05-29T11:37:53.835Z,27.26
2018-05-29T11:40:13.938Z,27.11
2018-05-29T11:41:13.962Z,27.08
2018-05-29T11:43:21.341Z,27.08
2018-05-29T11:44:21.331Z,27.23
2018-05-29T11:46:14.249Z,27.23
2018-05-29T11:47:14.250Z,27.16
2018-05-29T11:49:07.171Z,27.26
2018-05-29T11:50:07.169Z,27.19
2018-05-29T11:52:27.281Z,27.28
2018-05-29T11:53:27.296Z,27.26
2018-05-29T11:55:21.912Z,27.13
2018-05-29T11:56:21.913Z,27.15
2018-05-29T11:58:14.831Z,27.23
2018-05-29T11:59:14.837Z,27.28
2018-05-29T12:01:08.599Z,27.20
2018-05-29T12:02:08.599Z,27.26
2018-05-29T12:04:29.302Z,27.20
2018-05-29T12:05:29.262Z,27.25
2018-05-29T12:07:35.811Z,27.23
2018-05-29T12:08:35.815Z,27.13
2018-05-29T12:10:55.913Z,27.18
2018-05-29T12:11:55.914Z,27.23
2018-05-29T12:14:16.073Z,27.19
2018-05-29T12:15:16.041Z,27.22
2018-05-29T12:17:36.175Z,27.23
2018-05-29T12:18:36.169Z,27.23
2018-05-29T12:20:43.579Z,27.30
2018-05-29T12:21:43.577Z,27.25
2018-05-29T12:23:37.343Z,27.38
2018-05-29T12:24:37.371Z,27.30
2018-05-29T12:26:30.283Z,27.34
2018-05-29T12:27:30.268Z,27.30
2018-05-29T12:28:30.299Z,27.35
2018-05-29T12:29:30.325Z,27.38
2018-05-29T12:30:30.355Z,27.28
2018-05-29T12:31:30.383Z,27.29
2018-05-29T12:32:30.411Z,27.30
2018-05-29T12:33:30.441Z,27.34
2018-05-29T12:34:30.469Z,27.33
2018-05-29T12:35:30.504Z,27.33
2018-05-29T12:36:30.526Z,27.30
2018-05-29T12:37:30.555Z,27.40
2018-05-29T12:38:30.583Z,27.38
2018-05-29T12:39:30.616Z,27.28
2018-05-29T12:40:30.640Z,27.30
2018-05-29T12:41:30.669Z,27.33
2018-05-29T12:42:30.699Z,27.35
2018-05-29T12:43:30.728Z,27.40
2018-05-29T12:44:30.755Z,27.35
2018-05-29T12:45:30.785Z,27.34
2018-05-29T12:46:30.813Z,27.41
2018-05-29T12:47:30.845Z,27.38
2018-05-29T12:48:30.870Z,27.40
2018-05-29T12:49:30.899Z,27.30
2018-05-29T12:50:30.928Z,27.37
2018-05-29T12:51:30.958Z,27.40
2018-05-29T12:52:30.985Z,27.37
2018-05-29T12:53:31.057Z,27.40
2018-05-29T12:54:31.043Z,27.38
2018-05-29T12:55:31.072Z,27.38
2018-05-29T12:56:31.099Z,27.37
2018-05-29T12:57:31.128Z,27.34
2018-05-29T12:58:31.158Z,27.37
2018-05-29T12:59:31.186Z,27.33
2018-05-29T13:00:31.214Z,27.38
2018-05-29T13:01:31.243Z,27.41
2018-05-29T13:02:31.273Z,27.40
2018-05-29T13:03:31.301Z,27.37
2018-05-29T13:04:31.330Z,27.38
2018-05-29T13:05:31.370Z,27.40
2018-05-29T13:06:31.386Z,27.40
2018-05-29T13:07:31.416Z,27.38
2018-05-29T13:08:31.444Z,27.40
2018-05-29T13:09:31.473Z,27.37
2018-05-29T13:10:31.501Z,27.38
2018-05-29T13:11:31.530Z,27.34
2018-05-29T13:12:31.558Z,27.35
2018-05-29T13:13:31.595Z,27.40
2018-05-29T13:14:31.616Z,27.40
2018-05-29T13:15:31.646Z,27.37
2018-05-29T13:16:31.673Z,27.44
2018-05-29T13:17:31.701Z,27.37
2018-05-29T13:18:31.732Z,27.38
2018-05-29T13:19:31.759Z,27.37
2018-05-29T13:20:31.788Z,27.35
2018-05-29T13:21:31.817Z,27.40
2018-05-29T13:22:31.913Z,27.41
2018-05-29T13:23:31.876Z,27.41
2018-05-29T13:24:31.902Z,27.37
2018-05-29T13:25:31.931Z,27.40
2018-05-29T13:26:31.962Z,27.33
2018-05-29T13:27:32.029Z,27.41
2018-05-29T13:28:32.017Z,27.35
2018-05-29T13:29:32.046Z,27.38
2018-05-29T13:30:32.075Z,27.40
2018-05-29T13:31:32.105Z,27.40